createdAt,value
2019-06-07T00:00:56.884Z,2.50
2019-06-07T00:03:30.095Z,7.55
2019-06-07T00:06:02.120Z,2.45
2019-06-07T00:08:35.908Z,3.27
2019-06-07T00:11:07.745Z,2.55
2019-06-07T00:13:39.191Z,3.20
2019-06-07T00:16:11.910Z,10.10
2019-06-07T00:18:42.541Z,3.35
2019-06-07T00:21:14.442Z,7.53
2019-06-07T00:23:45.383Z,2.37
2019-06-07T00:26:18.184Z,2.37
2019-06-07T00:28:48.438Z,2.60
2019-06-07T00:31:24.372Z,2.83
2019-06-07T00:33:51.411Z,2.75
2019-06-07T00:36:23.238Z,2.62
2019-06-07T00:38:54.552Z,2.65
2019-06-07T00:41:25.621Z,2.22
2019-06-07T00:43:56.419Z,4.62
2019-06-07T00:46:27.338Z,3.00
2019-06-07T00:48:58.669Z,3.83
2019-06-07T00:51:49.206Z,2.87
2019-06-07T00:54:06.711Z,4.40
2019-06-07T00:56:37.562Z,3.67
2019-06-07T00:59:11.599Z,4.33
2019-06-07T01:01:40.473Z,2.92
2019-06-07T01:04:12.976Z,3.20
2019-06-07T01:06:45.917Z,3.45
2019-06-07T01:09:17.771Z,3.20
2019-06-07T01:11:48.935Z,3.40
2019-06-07T01:14:24.141Z,4.50
2019-06-07T01:17:01.255Z,4.00
2019-06-07T01:19:27.586Z,3.40
2019-06-07T01:21:56.952Z,3.45
2019-06-07T01:24:28.043Z,4.03
2019-06-07T01:26:59.120Z,4.05
2019-06-07T01:29:31.102Z,5.30
2019-06-07T01:32:04.502Z,4.25
2019-06-07T01:34:38.466Z,4.60
2019-06-07T01:37:09.544Z,3.92
2019-06-07T01:39:40.501Z,4.15
2019-06-07T01:42:12.325Z,7.00
2019-06-07T01:44:43.352Z,11.57
2019-06-07T01:47:14.253Z,8.00
2019-06-07T01:49:45.448Z,7.67
2019-06-07T01:52:16.545Z,9.60
2019-06-07T01:54:57.396Z,6.60
2019-06-07T01:57:38.411Z,4.40
2019-06-07T01:59:53.353Z,3.30
2019-06-07T02:02:28.052Z,4.10
2019-06-07T02:04:57.366Z,4.20
2019-06-07T02:07:32.621Z,5.25
2019-06-07T02:10:00.551Z,4.05
2019-06-07T02:12:40.197Z,4.22
2019-06-07T02:15:04.024Z,3.60
2019-06-07T02:17:34.714Z,3.80
2019-06-07T02:20:07.190Z,3.95
2019-06-07T02:22:38.066Z,5.00
2019-06-07T02:27:41.624Z,4.60
2019-06-07T02:32:45.692Z,3.25
2019-06-07T02:35:19.589Z,3.85
2019-06-07T02:37:51.104Z,3.60
2019-06-07T02:40:22.128Z,5.80
2019-06-07T02:42:53.687Z,5.28
2019-06-07T02:45:29.229Z,4.70
2019-06-07T02:47:58.214Z,15.80
2019-06-07T02:50:34.054Z,63.08
2019-06-07T02:53:03.280Z,22.45
2019-06-07T02:56:11.668Z,13.13
2019-06-07T02:58:07.529Z,20.23
2019-06-07T03:00:58.741Z,5.55
2019-06-07T03:03:16.797Z,4.12
2019-06-07T03:05:49.508Z,3.40
2019-06-07T03:08:20.880Z,2.62
2019-06-07T03:10:53.889Z,2.62
2019-06-07T03:13:28.466Z,7.10
2019-06-07T03:16:00.373Z,2.92
2019-06-07T03:18:34.383Z,2.42
2019-06-07T03:21:07.552Z,2.00
2019-06-07T03:23:39.253Z,2.27
2019-06-07T03:26:10.445Z,4.83
2019-06-07T03:28:41.739Z,2.50
2019-06-07T03:31:12.773Z,3.80
2019-06-07T03:33:45.542Z,1.80
2019-06-07T03:36:23.999Z,1.90
2019-06-07T03:38:48.476Z,2.35
2019-06-07T03:41:19.872Z,2.75
2019-06-07T03:43:50.751Z,4.45
2019-06-07T03:46:21.736Z,4.25
2019-06-07T03:48:53.486Z,3.95
2019-06-07T03:51:26.930Z,2.90
2019-06-07T03:53:56.534Z,7.70
2019-06-07T03:56:28.312Z,7.05
2019-06-07T03:58:59.700Z,4.55
2019-06-07T04:01:32.233Z,2.90
2019-06-07T04:04:03.045Z,2.33
2019-06-07T04:06:36.179Z,2.72
2019-06-07T04:09:08.251Z,3.20
2019-06-07T04:11:40.810Z,4.50
2019-06-07T04:14:11.718Z,4.35
2019-06-07T04:16:44.823Z,9.68
2019-06-07T04:19:15.009Z,4.83
2019-06-07T04:21:45.857Z,4.87
2019-06-07T04:24:20.740Z,3.98
2019-06-07T04:26:53.000Z,10.98
2019-06-07T04:29:32.895Z,12.45
2019-06-07T04:31:57.610Z,8.30
2019-06-07T04:34:29.313Z,4.05
2019-06-07T04:37:02.191Z,2.95
2019-06-07T04:39:37.795Z,2.95
2019-06-07T04:42:07.454Z,3.20
2019-06-07T04:44:42.579Z,3.00
2019-06-07T04:47:14.088Z,3.62
2019-06-07T04:49:48.123Z,4.40
2019-06-07T04:52:19.334Z,3.37
2019-06-07T04:54:50.393Z,6.03
2019-06-07T04:57:24.454Z,7.92
2019-06-07T05:00:12.272Z,4.80
2019-06-07T05:02:27.668Z,3.20
2019-06-07T05:04:58.726Z,2.95
2019-06-07T05:07:30.919Z,3.15
2019-06-07T05:10:02.112Z,2.50
2019-06-07T05:12:35.409Z,4.20
2019-06-07T05:15:06.817Z,9.00
2019-06-07T05:17:41.806Z,4.05
2019-06-07T05:20:10.316Z,2.67
2019-06-07T05:22:45.096Z,2.27
2019-06-07T05:25:20.647Z,2.40
2019-06-07T05:27:51.574Z,2.27
2019-06-07T05:30:59.516Z,2.40
2019-06-07T05:32:58.765Z,2.20
2019-06-07T05:35:33.105Z,2.22
2019-06-07T05:38:04.302Z,2.85
2019-06-07T05:40:39.410Z,2.77
2019-06-07T05:43:09.948Z,2.50
2019-06-07T05:45:44.885Z,2.52
2019-06-07T05:48:16.623Z,2.42
2019-06-07T05:50:56.442Z,2.45
2019-06-07T05:53:20.458Z,2.00
2019-06-07T05:55:51.292Z,2.25
2019-06-07T05:58:22.009Z,2.62
2019-06-07T06:00:53.103Z,2.50
2019-06-07T06:03:24.060Z,2.30
2019-06-07T06:05:55.680Z,2.20
2019-06-07T06:08:26.922Z,2.30
2019-06-07T06:10:59.988Z,2.22
2019-06-07T06:13:31.874Z,3.12
2019-06-07T06:16:03.152Z,2.40
2019-06-07T06:18:34.023Z,3.17
2019-06-07T06:21:18.098Z,2.45
2019-06-07T06:23:39.567Z,2.00
2019-06-07T06:26:09.819Z,2.75
2019-06-07T06:28:42.546Z,2.42
2019-06-07T06:31:12.875Z,2.15
2019-06-07T06:33:45.243Z,2.05
2019-06-07T06:36:16.705Z,2.05
2019-06-07T06:38:52.690Z,1.87
2019-06-07T06:41:24.563Z,2.27
2019-06-07T06:43:55.402Z,2.67
2019-06-07T06:46:38.924Z,2.45
2019-06-07T06:48:59.228Z,2.52
2019-06-07T06:51:30.447Z,2.20
2019-06-07T06:54:01.372Z,2.17
2019-06-07T06:56:32.138Z,2.40
2019-06-07T07:01:35.368Z,1.80
2019-06-07T07:04:13.017Z,2.75
2019-06-07T07:06:38.821Z,3.10
2019-06-07T07:09:09.880Z,2.22
2019-06-07T07:11:59.277Z,1.95
2019-06-07T07:14:13.137Z,1.98
2019-06-07T07:16:45.779Z,1.90
2019-06-07T07:19:16.145Z,1.80
2019-06-07T07:21:51.460Z,1.50
2019-06-07T07:24:22.075Z,1.62
2019-06-07T07:26:53.957Z,1.80
2019-06-07T07:29:24.599Z,2.52
2019-06-07T07:31:56.596Z,1.90
2019-06-07T07:34:36.346Z,1.70
2019-06-07T07:37:00.037Z,2.10
2019-06-07T07:39:30.847Z,1.77
2019-06-07T07:42:20.036Z,2.40
2019-06-07T07:44:33.931Z,2.27
2019-06-07T07:47:04.857Z,2.10
2019-06-07T07:49:35.626Z,1.90
2019-06-07T07:52:06.909Z,1.80
2019-06-07T07:54:38.219Z,2.10
2019-06-07T07:57:09.171Z,1.70
2019-06-07T07:59:44.149Z,2.00
2019-06-07T08:02:12.266Z,1.70
2019-06-07T08:05:13.899Z,1.62
2019-06-07T08:07:15.523Z,2.15
2019-06-07T08:09:47.546Z,2.37
2019-06-07T08:12:19.389Z,2.30
2019-06-07T08:14:51.316Z,2.45
2019-06-07T08:17:22.600Z,2.72
2019-06-07T08:19:54.992Z,2.47
2019-06-07T08:22:25.667Z,2.40
2019-06-07T08:24:59.870Z,1.70
2019-06-07T08:27:29.213Z,1.70
2019-06-07T08:30:33.560Z,1.50
2019-06-07T08:32:32.493Z,1.20
2019-06-07T08:35:06.706Z,1.20
2019-06-07T08:40:18.940Z,1.30
2019-06-07T08:43:10.734Z,1.50
2019-06-07T08:45:23.640Z,1.52
2019-06-07T08:47:58.172Z,1.50
2019-06-07T08:50:28.351Z,1.60
2019-06-07T08:53:10.632Z,1.80
2019-06-07T08:55:34.921Z,2.00
2019-06-07T08:58:08.987Z,1.90
2019-06-07T09:00:46.513Z,1.62
2019-06-07T09:03:14.286Z,1.45
2019-06-07T09:05:45.528Z,1.60
2019-06-07T09:08:29.432Z,2.02
2019-06-07T09:10:48.627Z,1.80
2019-06-07T09:13:19.279Z,3.33
2019-06-07T09:15:50.736Z,3.70
2019-06-07T09:18:43.936Z,2.40
2019-06-07T09:20:55.637Z,2.55
2019-06-07T09:23:27.303Z,3.17
2019-06-07T09:26:06.459Z,2.60
2019-06-07T09:28:31.894Z,2.72
2019-06-07T09:31:06.902Z,3.33
2019-06-07T09:33:35.029Z,2.80
2019-06-07T09:36:09.418Z,2.30
2019-06-07T09:38:38.829Z,1.90
2019-06-07T09:41:09.907Z,1.87
2019-06-07T09:44:01.938Z,2.15
2019-06-07T09:46:16.198Z,1.87
2019-06-07T09:49:14.574Z,2.50
2019-06-07T09:51:20.437Z,1.67
2019-06-07T09:53:51.112Z,1.80
2019-06-07T09:56:23.868Z,1.98
2019-06-07T09:58:55.388Z,1.67
2019-06-07T10:01:26.901Z,1.50
2019-06-07T10:04:03.644Z,1.40
2019-06-07T10:06:30.358Z,1.82
2019-06-07T10:11:34.475Z,2.02
2019-06-07T10:14:06.803Z,2.17
2019-06-07T10:16:46.608Z,1.95
2019-06-07T10:19:10.223Z,1.77
2019-06-07T10:21:41.099Z,1.60
2019-06-07T10:24:12.068Z,1.47
2019-06-07T10:26:42.806Z,1.70
2019-06-07T10:29:13.617Z,1.52
2019-06-07T10:31:44.522Z,1.90
2019-06-07T10:34:15.328Z,2.10
2019-06-07T10:36:46.061Z,1.90
2019-06-07T10:39:17.055Z,1.80
2019-06-07T10:41:47.859Z,1.90
2019-06-07T10:44:18.563Z,1.62
2019-06-07T10:46:49.441Z,1.70
2019-06-07T10:49:20.390Z,1.85
2019-06-07T10:51:51.027Z,1.95
2019-06-07T10:54:29.542Z,2.00
2019-06-07T10:56:54.159Z,2.17
2019-06-07T10:59:25.164Z,2.37
2019-06-07T11:01:56.087Z,2.37
2019-06-07T11:04:26.978Z,3.35
2019-06-07T11:06:57.825Z,2.80
2019-06-07T11:09:28.711Z,2.65
2019-06-07T11:11:59.824Z,1.87
2019-06-07T11:14:30.789Z,1.98
2019-06-07T11:17:01.672Z,2.40
2019-06-07T11:19:32.522Z,2.58
2019-06-07T11:22:03.505Z,2.65
2019-06-07T11:24:34.449Z,2.30
2019-06-07T11:27:07.212Z,2.17
2019-06-07T11:29:37.673Z,1.98
2019-06-07T11:32:08.530Z,2.50
2019-06-07T11:34:39.497Z,2.58
2019-06-07T11:37:11.743Z,2.17
2019-06-07T11:39:43.768Z,2.75
2019-06-07T11:42:14.727Z,2.70
2019-06-07T11:44:56.389Z,2.60
2019-06-07T11:47:18.434Z,2.50
2019-06-07T11:49:49.168Z,2.37
2019-06-07T11:52:20.387Z,2.30
2019-06-07T11:54:51.356Z,2.45
2019-06-07T11:57:22.185Z,2.12
2019-06-07T11:59:53.165Z,2.12
2019-06-07T12:02:24.336Z,2.20
2019-06-07T12:04:55.105Z,2.30
2019-06-07T12:07:25.963Z,2.15
2019-06-07T12:09:57.048Z,1.95
2019-06-07T12:12:28.065Z,2.67
2019-06-07T12:14:58.997Z,2.47
2019-06-07T12:17:29.984Z,2.60
2019-06-07T12:20:00.775Z,2.60
2019-06-07T12:22:31.819Z,2.50
2019-06-07T12:25:05.687Z,2.30
2019-06-07T12:27:34.719Z,2.22
2019-06-07T12:30:11.187Z,2.25
2019-06-07T12:32:39.572Z,3.10
2019-06-07T12:35:11.528Z,3.67
2019-06-07T12:37:44.933Z,3.02
2019-06-07T12:40:26.476Z,3.20
2019-06-07T12:42:48.542Z,4.00
2019-06-07T12:45:40.158Z,4.25
2019-06-07T12:47:54.110Z,3.90
2019-06-07T12:50:41.877Z,3.87
2019-06-07T12:52:58.091Z,3.30
2019-06-07T12:55:28.909Z,3.05
2019-06-07T12:57:59.874Z,3.08
2019-06-07T13:00:31.044Z,3.45
2019-06-07T13:03:01.795Z,3.05
2019-06-07T13:05:32.729Z,3.40
2019-06-07T13:08:03.537Z,3.35
2019-06-07T13:10:36.463Z,3.50
2019-06-07T13:13:07.322Z,3.75
2019-06-07T13:15:38.089Z,3.22
2019-06-07T13:18:08.910Z,3.65
2019-06-07T13:20:39.785Z,4.03
2019-06-07T13:23:10.685Z,3.60
2019-06-07T13:25:46.461Z,3.80
2019-06-07T13:28:14.068Z,3.50
2019-06-07T13:30:44.995Z,3.22
2019-06-07T13:33:16.872Z,5.40
2019-06-07T13:35:47.935Z,4.10
2019-06-07T13:38:20.611Z,3.20
2019-06-07T13:40:51.343Z,3.95
2019-06-07T13:43:22.143Z,3.60
2019-06-07T13:45:53.046Z,4.40
2019-06-07T13:48:25.248Z,4.03
2019-06-07T13:50:56.274Z,4.10
2019-06-07T13:53:27.033Z,4.37
2019-06-07T13:55:57.781Z,4.78
2019-06-07T13:58:28.728Z,5.28
2019-06-07T14:00:59.625Z,5.42
2019-06-07T14:03:33.608Z,5.58
2019-06-07T14:06:02.609Z,4.92
2019-06-07T14:08:33.653Z,5.10
2019-06-07T14:11:04.574Z,5.47
2019-06-07T14:13:35.306Z,5.65
2019-06-07T14:16:06.208Z,5.20
2019-06-07T14:18:36.920Z,4.83
2019-06-07T14:21:07.648Z,5.40
2019-06-07T14:23:48.385Z,5.50
2019-06-07T14:26:10.792Z,5.55
2019-06-07T14:28:41.643Z,5.22
2019-06-07T14:31:12.576Z,5.58
2019-06-07T14:33:43.295Z,5.78
2019-06-07T14:36:14.131Z,5.67
2019-06-07T14:38:44.934Z,5.15
2019-06-07T14:41:15.807Z,5.37
2019-06-07T14:43:46.581Z,6.42
2019-06-07T14:46:17.547Z,6.00
2019-06-07T14:48:48.103Z,6.15
2019-06-07T14:51:18.965Z,6.62
2019-06-07T14:53:49.823Z,6.70
2019-06-07T14:56:20.767Z,7.05
2019-06-07T14:58:51.474Z,6.67
2019-06-07T15:01:22.481Z,7.40
2019-06-07T15:03:53.564Z,6.75
2019-06-07T15:06:24.365Z,7.15
2019-06-07T15:08:55.278Z,7.87
2019-06-07T15:11:26.850Z,7.65
2019-06-07T15:13:57.592Z,8.25
2019-06-07T15:16:29.977Z,8.18
2019-06-07T15:19:00.696Z,8.13
2019-06-07T15:21:32.834Z,8.40
2019-06-07T15:24:03.865Z,7.92
2019-06-07T15:26:34.818Z,7.90
2019-06-07T15:29:05.598Z,8.03
2019-06-07T15:31:36.826Z,8.03
2019-06-07T15:34:08.760Z,8.83
2019-06-07T15:36:39.766Z,9.05
2019-06-07T15:39:10.563Z,9.43
2019-06-07T15:41:41.472Z,8.90
2019-06-07T15:44:12.378Z,9.93
2019-06-07T15:46:43.125Z,9.65
2019-06-07T15:49:14.006Z,10.28
2019-06-07T15:51:44.803Z,11.15
2019-06-07T15:54:15.678Z,11.70
2019-06-07T15:56:47.667Z,11.05
2019-06-07T15:59:18.631Z,11.48
2019-06-07T16:01:49.486Z,10.50
2019-06-07T16:04:20.660Z,10.93
2019-06-07T16:06:51.479Z,10.65
2019-06-07T16:09:22.331Z,10.78
2019-06-07T16:11:53.472Z,10.45
2019-06-07T16:14:24.333Z,11.03
2019-06-07T16:16:55.183Z,11.83
2019-06-07T16:19:26.115Z,11.68
2019-06-07T16:21:56.808Z,9.83
2019-06-07T16:24:27.656Z,10.30
2019-06-07T16:26:58.812Z,11.28
2019-06-07T16:29:29.634Z,10.00
2019-06-07T16:32:00.423Z,10.40
2019-06-07T16:34:31.290Z,10.82
2019-06-07T16:37:02.108Z,11.00
2019-06-07T16:39:33.238Z,10.98
2019-06-07T16:42:04.092Z,10.53
2019-06-07T16:44:34.879Z,9.73
2019-06-07T16:47:05.715Z,11.08
2019-06-07T16:49:36.743Z,11.38
2019-06-07T16:52:07.839Z,10.40
2019-06-07T16:54:39.329Z,9.90
2019-06-07T16:57:10.127Z,10.30
2019-06-07T16:59:41.103Z,9.63
2019-06-07T17:02:12.055Z,9.03
2019-06-07T17:04:43.540Z,8.83
2019-06-07T17:07:14.415Z,8.75
2019-06-07T17:09:47.749Z,8.75
2019-06-07T17:12:18.090Z,8.83
2019-06-07T17:14:49.097Z,8.48
2019-06-07T17:17:19.796Z,9.18
2019-06-07T17:19:50.625Z,9.20
2019-06-07T17:22:21.578Z,8.83
2019-06-07T17:24:52.507Z,9.08
2019-06-07T17:27:23.357Z,9.43
2019-06-07T17:29:54.223Z,8.20
2019-06-07T17:32:24.886Z,9.13
2019-06-07T17:34:55.890Z,8.35
2019-06-07T17:37:26.894Z,8.15
2019-06-07T17:39:57.650Z,7.95
2019-06-07T17:42:28.626Z,8.48
2019-06-07T17:44:59.609Z,8.53
2019-06-07T17:47:30.464Z,8.25
2019-06-07T17:50:02.926Z,8.05
2019-06-07T17:52:34.066Z,9.28
2019-06-07T17:55:06.157Z,9.30
2019-06-07T17:57:37.051Z,9.65
2019-06-07T18:00:29.209Z,10.30
2019-06-07T18:02:42.682Z,9.43
2019-06-07T18:05:14.134Z,10.10
2019-06-07T18:07:49.576Z,9.90
2019-06-07T18:10:25.493Z,10.65
2019-06-07T18:12:56.269Z,11.50
2019-06-07T18:15:29.546Z,11.73
2019-06-07T18:18:00.662Z,11.95
2019-06-07T18:20:31.378Z,11.25
2019-06-07T18:23:02.151Z,11.68
2019-06-07T18:25:33.038Z,10.72
2019-06-07T18:28:03.963Z,11.75
2019-06-07T18:30:34.561Z,10.28
2019-06-07T18:33:05.301Z,9.65
2019-06-07T18:35:36.384Z,10.80
2019-06-07T18:38:10.580Z,11.12
2019-06-07T18:40:39.663Z,11.75
2019-06-07T18:43:10.341Z,11.20
2019-06-07T18:45:41.225Z,11.73
2019-06-07T18:48:12.199Z,11.75
2019-06-07T18:50:43.150Z,12.53
2019-06-07T18:53:14.104Z,12.37
2019-06-07T18:55:44.832Z,12.65
2019-06-07T18:58:15.644Z,12.18
2019-06-07T19:00:47.307Z,12.03
2019-06-07T19:03:20.838Z,11.97
2019-06-07T19:05:52.164Z,12.47
2019-06-07T19:08:23.245Z,12.37
2019-06-07T19:10:54.813Z,13.22
2019-06-07T19:13:25.623Z,13.45
2019-06-07T19:15:57.473Z,13.55
2019-06-07T19:18:28.420Z,14.23
2019-06-07T19:21:00.564Z,15.50
2019-06-07T19:23:31.682Z,15.32
2019-06-07T19:26:03.237Z,14.20
2019-06-07T19:28:34.134Z,15.10
2019-06-07T19:31:05.155Z,14.47
2019-06-07T19:33:48.355Z,14.83
2019-06-07T19:36:08.032Z,14.85
2019-06-07T19:38:38.934Z,14.60
2019-06-07T19:41:19.151Z,16.42
2019-06-07T19:43:41.827Z,16.93
2019-06-07T19:46:12.815Z,16.65
2019-06-07T19:48:43.979Z,16.85
2019-06-07T19:51:14.850Z,15.83
2019-06-07T19:53:45.811Z,15.18
2019-06-07T19:56:16.846Z,16.30
2019-06-07T19:58:48.116Z,16.52
2019-06-07T20:01:18.962Z,17.07
2019-06-07T20:03:49.946Z,17.65
2019-06-07T20:06:20.893Z,18.42
2019-06-07T20:08:51.787Z,18.57
2019-06-07T20:11:22.678Z,19.10
2019-06-07T20:13:54.462Z,18.60
2019-06-07T20:16:25.524Z,18.48
2019-06-07T20:18:56.386Z,19.02
2019-06-07T20:21:27.448Z,17.30
2019-06-07T20:24:01.638Z,16.77
2019-06-07T20:26:30.500Z,17.60
2019-06-07T20:29:01.352Z,19.50
2019-06-07T20:31:32.581Z,18.35
2019-06-07T20:34:04.156Z,18.92
2019-06-07T20:36:35.558Z,18.73
2019-06-07T20:39:08.746Z,20.00
2019-06-07T20:41:39.434Z,20.40
2019-06-07T20:44:10.370Z,19.50
2019-06-07T20:46:41.213Z,17.82
2019-06-07T20:49:12.200Z,17.10
2019-06-07T20:51:42.962Z,17.12
2019-06-07T20:54:13.778Z,17.35
2019-06-07T20:56:44.844Z,15.95
2019-06-07T20:59:15.738Z,16.45
2019-06-07T21:01:46.695Z,16.57
2019-06-07T21:04:17.577Z,16.97
2019-06-07T21:06:48.556Z,16.97
2019-06-07T21:09:19.323Z,15.00
2019-06-07T21:11:50.052Z,15.75
2019-06-07T21:14:20.810Z,16.15
2019-06-07T21:16:51.738Z,15.38
2019-06-07T21:19:24.646Z,15.43
2019-06-07T21:21:55.580Z,17.32
2019-06-07T21:24:26.269Z,17.27
2019-06-07T22:57:48.709Z,10.75
2019-06-07T23:00:20.815Z,11.10
2019-06-07T23:02:52.142Z,11.10
2019-06-07T23:05:23.162Z,10.65
2019-06-07T23:07:54.181Z,10.93
2019-06-07T23:10:25.544Z,12.00
2019-06-07T23:12:56.162Z,10.90
2019-06-07T23:15:27.217Z,10.68
2019-06-07T23:17:58.114Z,10.45
2019-06-07T23:20:28.844Z,9.80
2019-06-07T23:22:59.710Z,9.10
2019-06-07T23:25:30.439Z,8.25
2019-06-07T23:28:01.167Z,7.53
2019-06-07T23:30:31.983Z,6.95
2019-06-07T23:33:03.069Z,6.87
2019-06-07T23:35:34.020Z,6.10
2019-06-07T23:38:04.922Z,6.00
2019-06-07T23:40:35.661Z,6.03
2019-06-07T23:43:06.475Z,5.25
2019-06-07T23:45:37.163Z,5.40
2019-06-07T23:48:08.136Z,4.70
2019-06-07T23:50:39.110Z,4.37
2019-06-07T23:53:09.895Z,4.22
2019-06-07T23:55:40.738Z,3.95
2019-06-07T23:58:11.875Z,3.50
